createdAt,value
2023-03-26T00:02:09.662Z,9.61
2023-03-26T00:04:38.716Z,9.64
2023-03-26T00:07:10.600Z,9.37
2023-03-26T00:09:39.059Z,9.08
2023-03-26T00:12:12.275Z,9.41
2023-03-26T00:14:41.248Z,9.66
2023-03-26T00:17:09.924Z,9.57
2023-03-26T00:19:43.432Z,9.31
2023-03-26T00:22:14.367Z,9.10
2023-03-26T00:24:46.223Z,9.44
2023-03-26T00:27:20.850Z,9.48
2023-03-26T00:29:49.963Z,9.32
2023-03-26T00:32:18.838Z,9.15
2023-03-26T00:34:48.283Z,9.05
2023-03-26T00:37:16.852Z,9.30
2023-03-26T00:39:49.506Z,9.27
2023-03-26T00:42:19.112Z,9.06
2023-03-26T00:44:47.715Z,8.80
2023-03-26T00:47:17.099Z,8.83
2023-03-26T00:49:47.112Z,9.04
2023-03-26T00:52:19.157Z,8.95
2023-03-26T00:54:51.760Z,8.75
2023-03-26T00:57:32.976Z,8.45
2023-03-26T01:00:17.168Z,8.58
2023-03-26T01:02:47.316Z,8.83
2023-03-26T01:05:42.931Z,8.71
2023-03-26T01:08:34.844Z,8.44
2023-03-26T01:11:07.599Z,8.19
2023-03-26T01:13:38.327Z,8.50
2023-03-26T01:16:09.958Z,8.58
2023-03-26T01:18:43.197Z,8.38
2023-03-26T01:21:14.771Z,8.01
2023-03-26T01:23:49.126Z,7.77
2023-03-26T01:26:23.492Z,7.91
2023-03-26T01:28:55.554Z,8.31
2023-03-26T01:31:37.252Z,8.28
2023-03-26T01:34:21.602Z,8.02
2023-03-26T01:37:08.938Z,7.69
2023-03-26T01:39:49.817Z,7.41
2023-03-26T01:42:26.177Z,7.81
2023-03-26T01:45:01.555Z,8.01
2023-03-26T01:47:30.428Z,7.92
2023-03-26T01:49:59.110Z,7.70
2023-03-26T01:52:27.872Z,7.63
2023-03-26T01:54:56.286Z,7.99
2023-03-26T01:57:53.309Z,8.07
2023-03-26T02:00:39.197Z,7.82
2023-03-26T02:03:31.602Z,7.67
2023-03-26T02:06:25.881Z,7.94
2023-03-26T02:09:01.615Z,8.03
2023-03-26T02:11:35.436Z,7.80
2023-03-26T02:14:08.958Z,7.52
2023-03-26T02:16:37.490Z,7.54
2023-03-26T02:19:15.938Z,7.78
2023-03-26T02:21:46.189Z,7.67
2023-03-26T02:24:14.898Z,7.39
2023-03-26T02:26:44.892Z,7.21
2023-03-26T02:29:15.108Z,7.16
2023-03-26T02:31:48.620Z,7.44
2023-03-26T02:34:17.556Z,7.45
2023-03-26T02:36:53.200Z,7.18
2023-03-26T02:39:22.155Z,6.94
2023-03-26T02:42:03.494Z,6.91
2023-03-26T02:44:35.321Z,7.38
2023-03-26T02:47:03.976Z,7.48
2023-03-26T02:49:51.193Z,7.33
2023-03-26T02:52:24.999Z,7.09
2023-03-26T02:54:56.542Z,6.94
2023-03-26T02:57:26.909Z,7.35
2023-03-26T03:00:09.235Z,7.63
2023-03-26T03:02:41.474Z,7.51
2023-03-26T03:05:31.847Z,7.21
2023-03-26T03:08:23.112Z,6.93
2023-03-26T03:11:13.151Z,7.24
2023-03-26T03:13:51.265Z,7.53
2023-03-26T03:16:30.824Z,7.44
2023-03-26T03:19:02.142Z,7.21
2023-03-26T03:21:38.812Z,7.00
2023-03-26T03:24:09.893Z,7.29
2023-03-26T03:26:42.561Z,7.50
2023-03-26T03:29:30.807Z,7.41
2023-03-26T03:32:02.338Z,7.26
2023-03-26T03:34:50.063Z,7.12
2023-03-26T03:37:19.316Z,7.54
2023-03-26T03:39:53.470Z,7.79
2023-03-26T03:42:22.932Z,7.65
2023-03-26T03:52:12.088Z,7.79
2023-03-26T03:54:42.630Z,7.79
2023-03-26T03:57:35.571Z,7.56
2023-03-26T04:00:12.054Z,7.42
2023-03-26T04:02:50.397Z,7.74
2023-03-26T04:05:19.139Z,7.84
2023-03-26T04:07:50.485Z,7.65
2023-03-26T04:10:24.914Z,7.47
2023-03-26T04:13:12.759Z,7.52
2023-03-26T04:16:01.579Z,7.90
2023-03-26T04:18:34.907Z,7.93
2023-03-26T04:21:09.622Z,7.73
2023-03-26T04:23:38.507Z,7.58
2023-03-26T04:26:17.846Z,7.67
2023-03-26T04:29:04.961Z,8.06
2023-03-26T04:31:40.145Z,7.94
2023-03-26T04:34:14.562Z,7.71
2023-03-26T04:36:54.965Z,7.52
2023-03-26T04:39:29.360Z,7.82
2023-03-26T04:42:33.626Z,7.94
2023-03-26T04:45:22.840Z,7.80
2023-03-26T04:47:58.780Z,7.47
2023-03-26T04:50:27.139Z,7.49
2023-03-26T04:52:57.035Z,7.94
2023-03-26T04:55:56.372Z,7.97
2023-03-26T04:58:45.251Z,7.78
2023-03-26T05:01:16.850Z,7.66
2023-03-26T05:03:46.600Z,7.86
2023-03-26T05:06:16.490Z,8.26
2023-03-26T05:08:45.271Z,8.32
2023-03-26T05:11:21.433Z,8.10
2023-03-26T05:13:50.327Z,7.91
2023-03-26T05:16:19.392Z,7.91
2023-03-26T05:19:07.352Z,8.25
2023-03-26T05:21:36.456Z,8.25
2023-03-26T05:24:10.975Z,8.06
2023-03-26T05:26:39.459Z,7.98
2023-03-26T05:29:08.149Z,7.85
2023-03-26T05:31:43.172Z,8.41
2023-03-26T05:34:11.552Z,8.73
2023-03-26T05:36:44.340Z,8.61
2023-03-26T05:39:34.116Z,8.48
2023-03-26T05:42:45.746Z,8.11
2023-03-26T05:45:31.800Z,8.12
2023-03-26T05:48:01.854Z,8.65
2023-03-26T05:50:30.720Z,8.84
2023-03-26T05:53:10.050Z,8.78
2023-03-26T05:56:00.335Z,8.58
2023-03-26T05:58:38.338Z,8.34
2023-03-26T06:01:26.378Z,8.65
2023-03-26T06:04:24.271Z,9.25
2023-03-26T06:07:17.105Z,9.22
2023-03-26T06:09:52.340Z,9.10
2023-03-26T06:12:22.254Z,8.94
2023-03-26T06:14:56.878Z,8.86
2023-03-26T06:17:36.553Z,9.06
2023-03-26T06:20:16.071Z,9.21
2023-03-26T06:22:49.360Z,9.13
2023-03-26T06:25:23.167Z,8.95
2023-03-26T06:28:09.164Z,8.58
2023-03-26T06:31:03.992Z,8.71
2023-03-26T06:33:44.932Z,9.05
2023-03-26T06:36:14.869Z,9.04
2023-03-26T06:38:43.772Z,8.94
2023-03-26T06:41:13.552Z,8.84
2023-03-26T06:43:57.501Z,8.75
2023-03-26T06:46:49.025Z,9.23
2023-03-26T06:49:45.408Z,9.30
2023-03-26T06:52:56.027Z,9.06
2023-03-26T06:55:34.133Z,8.95
2023-03-26T06:58:32.301Z,8.82
2023-03-26T07:01:19.886Z,9.43
2023-03-26T07:04:07.616Z,9.69
2023-03-26T07:06:56.221Z,9.75
2023-03-26T07:09:43.441Z,9.57
2023-03-26T07:12:31.265Z,9.36
2023-03-26T07:15:36.616Z,9.58
2023-03-26T07:18:23.634Z,9.90
2023-03-26T07:20:54.269Z,9.88
2023-03-26T07:23:23.977Z,9.71
2023-03-26T07:25:59.773Z,9.59
2023-03-26T07:28:42.320Z,9.38
2023-03-26T07:31:58.240Z,9.37
2023-03-26T07:34:37.089Z,9.61
2023-03-26T07:37:23.909Z,9.70
2023-03-26T07:40:34.946Z,9.65
2023-03-26T07:43:49.105Z,9.55
2023-03-26T07:46:39.520Z,9.57
2023-03-26T07:49:29.989Z,9.85
2023-03-26T07:52:14.228Z,9.82
2023-03-26T07:54:56.641Z,9.72
2023-03-26T07:57:47.766Z,9.47
2023-03-26T08:01:17.260Z,9.42
2023-03-26T08:04:24.841Z,9.65
2023-03-26T08:07:34.299Z,10.53
2023-03-26T08:10:24.123Z,10.37
2023-03-26T08:13:20.718Z,10.50
2023-03-26T08:15:54.260Z,10.55
2023-03-26T08:18:35.991Z,10.52
2023-03-26T08:21:17.725Z,10.38
2023-03-26T08:24:11.854Z,10.07
2023-03-26T08:26:57.774Z,10.01
2023-03-26T08:29:50.230Z,9.83
2023-03-26T08:32:19.835Z,10.57
2023-03-26T08:34:48.610Z,11.29
2023-03-26T08:37:17.398Z,11.59
2023-03-26T08:39:46.294Z,11.46
2023-03-26T08:42:33.408Z,11.70
2023-03-26T08:45:11.305Z,12.01
2023-03-26T08:48:11.633Z,12.24
2023-03-26T08:50:43.292Z,11.94
2023-03-26T08:53:30.718Z,11.39
2023-03-26T08:56:26.441Z,10.95
2023-03-26T08:59:41.921Z,10.56
2023-03-26T09:02:33.564Z,10.22
2023-03-26T09:05:21.286Z,10.12
2023-03-26T09:07:49.964Z,10.16
2023-03-26T09:10:36.776Z,10.39
2023-03-26T09:13:53.803Z,10.86
2023-03-26T09:16:51.478Z,10.81
2023-03-26T09:19:26.081Z,10.84
2023-03-26T09:22:06.657Z,10.72
2023-03-26T09:24:57.449Z,10.70
2023-03-26T09:27:39.041Z,10.90
2023-03-26T09:30:26.671Z,10.92
2023-03-26T09:33:11.956Z,10.95
2023-03-26T09:36:17.905Z,11.19
2023-03-26T09:38:53.962Z,11.52
2023-03-26T09:41:39.443Z,12.02
2023-03-26T09:44:33.014Z,12.39
2023-03-26T09:47:10.914Z,12.64
2023-03-26T09:50:04.789Z,12.46
2023-03-26T10:00:36.703Z,12.80
2023-03-26T10:03:08.713Z,12.24
2023-03-26T10:06:07.385Z,11.93
2023-03-26T10:09:17.944Z,11.73
2023-03-26T10:12:19.840Z,11.99
2023-03-26T10:15:23.949Z,12.50
2023-03-26T10:18:27.341Z,12.46
2023-03-26T10:21:05.563Z,12.66
2023-03-26T10:23:58.184Z,12.69
2023-03-26T10:27:08.482Z,12.15
2023-03-26T10:30:04.670Z,12.20
2023-03-26T10:32:49.368Z,12.08
2023-03-26T10:35:33.398Z,12.40
2023-03-26T10:38:24.474Z,12.50
2023-03-26T10:41:04.754Z,11.50
2023-03-26T10:43:36.686Z,11.59
2023-03-26T10:46:31.785Z,12.27
2023-03-26T10:49:28.639Z,12.86
2023-03-26T10:52:03.796Z,12.76
2023-03-26T10:54:38.606Z,12.72
2023-03-26T10:57:13.410Z,13.07
2023-03-26T10:59:41.968Z,13.50
2023-03-26T11:02:30.085Z,13.44
2023-03-26T11:05:17.822Z,13.65
2023-03-26T11:07:54.093Z,12.85
2023-03-26T11:10:30.622Z,13.13
2023-03-26T11:13:19.381Z,13.07
2023-03-26T11:16:02.487Z,13.19
2023-03-26T11:18:32.120Z,12.71
2023-03-26T11:21:19.899Z,12.27
2023-03-26T11:24:22.022Z,12.19
2023-03-26T11:26:57.245Z,12.26
2023-03-26T11:29:53.189Z,12.42
2023-03-26T11:32:27.740Z,12.37
2023-03-26T11:35:02.538Z,12.02
2023-03-26T11:37:48.291Z,12.30
2023-03-26T11:40:24.489Z,12.42
2023-03-26T11:42:56.406Z,12.08
2023-03-26T11:45:26.820Z,11.75
2023-03-26T11:48:28.134Z,11.65
2023-03-26T11:51:08.526Z,11.30
2023-03-26T11:53:39.943Z,11.13
2023-03-26T11:56:28.082Z,11.21
2023-03-26T11:59:01.479Z,11.38
2023-03-26T12:01:41.133Z,11.61
2023-03-26T12:04:14.772Z,11.73
2023-03-26T12:06:56.744Z,11.82
2023-03-26T12:09:26.104Z,12.06
2023-03-26T12:12:03.846Z,11.96
2023-03-26T12:14:34.745Z,11.78
2023-03-26T12:17:07.948Z,11.49
2023-03-26T12:19:42.071Z,11.30
2023-03-26T12:22:32.103Z,11.21
2023-03-26T12:25:25.123Z,11.18
2023-03-26T12:28:04.012Z,11.11
2023-03-26T12:30:40.059Z,11.04
2023-03-26T12:33:34.524Z,10.94
2023-03-26T12:36:24.967Z,10.77
2023-03-26T12:39:16.244Z,10.53
2023-03-26T12:44:42.694Z,10.39
2023-03-26T12:44:58.862Z,10.20
2023-03-26T12:48:00.104Z,9.86
2023-03-26T12:50:34.905Z,9.66
2023-03-26T12:53:26.813Z,9.40
2023-03-26T12:56:01.864Z,9.27
2023-03-26T12:58:55.331Z,9.23
2023-03-26T13:01:28.297Z,9.18
2023-03-26T13:04:13.885Z,9.13
2023-03-26T13:07:01.759Z,9.08
2023-03-26T13:10:21.304Z,9.12
2023-03-26T13:12:52.970Z,9.22
2023-03-26T13:15:37.935Z,9.36
2023-03-26T13:18:54.838Z,9.67
2023-03-26T13:21:46.359Z,9.90
2023-03-26T13:24:26.549Z,9.94
2023-03-26T13:27:21.107Z,9.97
2023-03-26T13:30:16.214Z,9.93
2023-03-26T13:33:21.762Z,9.90
2023-03-26T13:36:27.613Z,9.86
2023-03-26T13:39:16.591Z,9.84
2023-03-26T13:41:49.263Z,9.79
2023-03-26T13:44:30.340Z,9.68
2023-03-26T13:47:08.296Z,9.49
2023-03-26T13:49:53.819Z,9.30
2023-03-26T13:52:49.440Z,9.14
2023-03-26T13:55:36.459Z,9.06
2023-03-26T13:58:15.041Z,9.04
2023-03-26T14:00:45.603Z,9.01
2023-03-26T14:03:45.792Z,9.05
2023-03-26T14:06:46.929Z,9.25
2023-03-26T14:09:24.787Z,10.14
2023-03-26T14:12:21.185Z,10.53
2023-03-26T14:14:59.426Z,10.82
2023-03-26T14:17:38.728Z,10.87
2023-03-26T14:20:16.146Z,10.81
2023-03-26T14:23:15.345Z,10.84
2023-03-26T14:26:01.370Z,10.75
2023-03-26T14:28:52.342Z,10.69
2023-03-26T14:31:58.139Z,10.59
2023-03-26T14:34:35.491Z,10.42
2023-03-26T14:37:27.935Z,10.21
2023-03-26T14:40:22.319Z,9.97
2023-03-26T14:43:09.818Z,9.77
2023-03-26T14:46:09.578Z,9.59
2023-03-26T14:48:50.750Z,9.43
2023-03-26T14:51:54.657Z,9.32
2023-03-26T14:54:27.537Z,9.22
2023-03-26T14:57:28.256Z,9.10
2023-03-26T15:00:22.670Z,9.04
2023-03-26T15:03:09.898Z,8.99
2023-03-26T15:05:54.247Z,8.92
2023-03-26T15:08:45.144Z,8.83
2023-03-26T15:11:21.233Z,8.75
2023-03-26T15:14:18.569Z,8.66
2023-03-26T15:17:10.003Z,8.58
2023-03-26T15:19:47.171Z,8.91
2023-03-26T15:22:52.404Z,8.97
2023-03-26T15:25:43.104Z,8.91
2023-03-26T15:28:50.814Z,8.90
2023-03-26T15:31:42.794Z,9.00
2023-03-26T15:34:31.392Z,8.99
2023-03-26T15:37:43.692Z,8.90
2023-03-26T15:40:34.190Z,9.24
2023-03-26T15:43:13.333Z,9.71
2023-03-26T15:46:12.970Z,9.73
2023-03-26T15:48:53.610Z,9.47
2023-03-26T15:51:26.483Z,9.08
2023-03-26T15:54:23.762Z,8.80
2023-03-26T15:57:26.360Z,8.57
2023-03-26T16:01:51.787Z,8.27
2023-03-26T16:04:50.471Z,8.03
2023-03-26T16:07:48.489Z,7.86
2023-03-26T16:10:34.496Z,7.70
2023-03-26T16:13:15.582Z,7.62
2023-03-26T16:16:04.419Z,8.23
2023-03-26T16:18:38.438Z,8.56
2023-03-26T16:21:31.361Z,8.47
2023-03-26T16:24:04.177Z,8.21
2023-03-26T16:26:51.500Z,7.95
2023-03-26T16:29:22.472Z,7.70
2023-03-26T16:32:16.006Z,7.52
2023-03-26T16:35:05.584Z,7.32
2023-03-26T16:37:44.103Z,7.16
2023-03-26T16:40:20.806Z,7.00
2023-03-26T16:43:20.804Z,6.90
2023-03-26T16:46:07.924Z,7.62
2023-03-26T16:49:15.098Z,8.12
2023-03-26T16:51:59.148Z,8.03
2023-03-26T16:54:32.663Z,7.77
2023-03-26T16:57:19.357Z,7.50
2023-03-26T17:00:13.862Z,7.23
2023-03-26T17:03:13.538Z,6.97
2023-03-26T17:05:56.877Z,6.72
2023-03-26T17:08:36.227Z,6.52
2023-03-26T17:11:08.797Z,6.41
2023-03-26T17:14:03.806Z,6.94
2023-03-26T17:16:46.116Z,7.59
2023-03-26T17:19:32.532Z,7.61
2023-03-26T17:22:20.525Z,7.43
2023-03-26T17:24:57.525Z,7.19
2023-03-26T17:27:51.401Z,6.94
2023-03-26T17:30:58.421Z,6.76
2023-03-26T17:33:31.794Z,6.53
2023-03-26T17:36:12.852Z,6.37
2023-03-26T17:38:48.403Z,6.88
2023-03-26T17:41:53.332Z,7.40
2023-03-26T17:44:41.087Z,7.51
2023-03-26T17:47:20.935Z,7.44
2023-03-26T17:49:51.362Z,7.32
2023-03-26T17:52:23.156Z,7.18
2023-03-26T17:54:52.316Z,7.11
2023-03-26T17:57:44.942Z,7.59
2023-03-26T18:00:20.383Z,7.98
2023-03-26T18:02:54.878Z,8.03
2023-03-26T18:05:25.802Z,7.92
2023-03-26T18:08:09.783Z,7.71
2023-03-26T18:11:01.823Z,7.44
2023-03-26T18:13:45.770Z,7.13
2023-03-26T18:16:21.364Z,6.88
2023-03-26T18:19:00.739Z,6.68
2023-03-26T18:21:37.262Z,7.22
2023-03-26T18:24:15.248Z,7.73
2023-03-26T18:26:49.847Z,7.65
2023-03-26T18:29:31.129Z,7.39
2023-03-26T18:32:02.645Z,7.00
2023-03-26T18:34:33.626Z,6.71
2023-03-26T18:37:17.256Z,6.44
2023-03-26T18:39:59.346Z,6.27
2023-03-26T18:42:29.773Z,6.79
2023-03-26T18:45:03.977Z,7.05
2023-03-26T18:47:37.223Z,6.94
2023-03-26T18:50:07.254Z,6.76
2023-03-26T18:52:36.013Z,6.59
2023-03-26T18:55:05.084Z,6.44
2023-03-26T18:57:33.664Z,6.29
2023-03-26T19:00:17.472Z,6.26
2023-03-26T19:02:52.034Z,6.92
2023-03-26T19:05:21.336Z,7.35
2023-03-26T19:07:50.221Z,7.30
2023-03-26T19:10:22.493Z,7.11
2023-03-26T19:12:56.897Z,6.89
2023-03-26T19:15:30.730Z,6.69
2023-03-26T19:18:07.301Z,6.51
2023-03-26T19:20:40.813Z,6.35
2023-03-26T19:23:13.665Z,6.25
2023-03-26T19:25:48.360Z,6.79
2023-03-26T19:28:22.416Z,7.37
2023-03-26T19:30:57.779Z,7.39
2023-03-26T19:33:36.768Z,7.19
2023-03-26T19:36:18.424Z,6.92
2023-03-26T19:38:52.646Z,6.63
2023-03-26T19:41:26.179Z,6.38
2023-03-26T19:43:55.841Z,6.16
2023-03-26T19:46:26.381Z,5.95
2023-03-26T19:48:56.587Z,5.81
2023-03-26T19:51:32.266Z,6.32
2023-03-26T19:54:19.842Z,6.90
2023-03-26T19:56:48.474Z,6.92
2023-03-26T19:59:25.199Z,6.67
2023-03-26T20:01:53.672Z,6.43
2023-03-26T20:04:22.245Z,6.18
2023-03-26T20:06:53.017Z,5.96
2023-03-26T20:09:21.768Z,5.77
2023-03-26T20:11:52.801Z,5.63
2023-03-26T20:14:26.266Z,6.08
2023-03-26T20:16:55.887Z,6.61
2023-03-26T20:19:26.028Z,6.64
2023-03-26T20:21:55.897Z,6.46
2023-03-26T20:24:25.139Z,6.23
2023-03-26T20:26:53.925Z,6.01
2023-03-26T20:29:23.640Z,5.80
2023-03-26T20:31:52.030Z,5.59
2023-03-26T20:34:23.516Z,5.42
2023-03-26T20:37:01.266Z,5.84
2023-03-26T20:39:30.273Z,6.36
2023-03-26T20:42:00.985Z,6.37
2023-03-26T20:44:31.110Z,6.17
2023-03-26T20:46:59.433Z,5.94
2023-03-26T20:49:29.398Z,5.73
2023-03-26T20:51:57.873Z,5.55
2023-03-26T20:54:30.511Z,5.36
2023-03-26T20:56:59.173Z,5.21
2023-03-26T20:59:33.061Z,5.73
2023-03-26T21:02:02.101Z,6.23
2023-03-26T21:04:32.376Z,6.28
2023-03-26T21:07:10.947Z,6.08
2023-03-26T21:09:49.306Z,5.82
2023-03-26T21:12:41.537Z,5.58
2023-03-26T21:15:22.782Z,5.33
2023-03-26T21:17:55.098Z,5.22
2023-03-26T21:20:24.593Z,5.73
2023-03-26T21:23:23.888Z,6.08
2023-03-26T21:26:25.433Z,6.02
2023-03-26T21:28:54.539Z,5.77
2023-03-26T21:31:24.518Z,5.54
2023-03-26T21:33:55.409Z,5.35
2023-03-26T21:36:24.970Z,5.20
2023-03-26T21:38:54.886Z,5.61
2023-03-26T21:41:23.299Z,5.89
2023-03-26T21:43:52.388Z,5.87
2023-03-26T21:46:22.252Z,5.73
2023-03-26T21:48:51.299Z,5.49
2023-03-26T21:51:20.286Z,5.21
2023-03-26T21:53:51.430Z,4.99
2023-03-26T21:56:34.121Z,5.12
2023-03-26T21:59:18.312Z,5.73
2023-03-26T22:02:09.924Z,5.85
2023-03-26T22:04:47.617Z,5.62
2023-03-26T22:07:18.350Z,5.33
2023-03-26T22:09:47.244Z,4.99
2023-03-26T22:12:16.867Z,4.81
2023-03-26T22:14:45.951Z,5.13
2023-03-26T22:17:14.746Z,5.43
2023-03-26T22:19:50.381Z,5.43
2023-03-26T22:22:19.680Z,5.31
2023-03-26T22:24:48.086Z,5.12
2023-03-26T22:27:17.566Z,4.87
2023-03-26T22:29:46.659Z,4.76
2023-03-26T22:32:14.952Z,5.20
2023-03-26T22:34:45.157Z,5.44
2023-03-26T22:37:13.795Z,5.42
2023-03-26T22:39:43.772Z,5.17
2023-03-26T22:42:12.757Z,4.94
2023-03-26T22:44:41.482Z,4.70
2023-03-26T22:47:10.745Z,4.77
2023-03-26T22:49:40.204Z,5.19
2023-03-26T22:52:13.737Z,5.24
2023-03-26T22:54:42.961Z,5.10
2023-03-26T22:57:12.144Z,4.86
2023-03-26T22:59:41.029Z,4.71
2023-03-26T23:02:13.299Z,4.63
2023-03-26T23:04:42.989Z,5.11
2023-03-26T23:07:12.410Z,5.55
2023-03-26T23:09:41.844Z,5.53
2023-03-26T23:12:10.196Z,5.27
2023-03-26T23:14:38.771Z,4.99
2023-03-26T23:17:07.892Z,4.75
2023-03-26T23:19:44.023Z,4.58
2023-03-26T23:22:13.235Z,4.99
2023-03-26T23:24:41.626Z,5.41
2023-03-26T23:27:11.106Z,5.41
2023-03-26T23:29:39.391Z,5.16
2023-03-26T23:32:23.997Z,4.77
2023-03-26T23:34:56.210Z,4.44
2023-03-26T23:37:24.515Z,4.38
2023-03-26T23:39:53.886Z,4.82
2023-03-26T23:42:28.229Z,4.94
2023-03-26T23:44:58.251Z,4.84
2023-03-26T23:47:34.778Z,4.64
2023-03-26T23:50:05.422Z,4.45
2023-03-26T23:52:34.374Z,4.64
2023-03-26T23:55:03.112Z,4.97
2023-03-26T23:57:32.606Z,4.93
